sensor_id;sensor_type;location;lat;lon;timestamp;P1;durP1;ratioP1;P2;durP2;ratioP2
32824;SDS011;51060;42.640;24.356;2022-12-13T00:00:12;2.27;;;2.07;;
32824;SDS011;51060;42.640;24.356;2022-12-13T00:02:42;2.20;;;2.00;;
32824;SDS011;51060;42.640;24.356;2022-12-13T00:05:08;1.33;;;1.00;;
32824;SDS011;51060;42.640;24.356;2022-12-13T00:07:34;1.50;;;1.40;;
32824;SDS011;51060;42.640;24.356;2022-12-13T00:10:00;1.57;;;1.37;;
32824;SDS011;51060;42.640;24.356;2022-12-13T00:12:26;3.10;;;2.13;;
32824;SDS011;51060;42.640;24.356;2022-12-13T00:14:52;5.67;;;3.37;;
32824;SDS011;51060;42.640;24.356;2022-12-13T00:17:17;5.27;;;3.40;;
32824;SDS011;51060;42.640;24.356;2022-12-13T00:19:43;1.60;;;1.50;;
32824;SDS011;51060;42.640;24.356;2022-12-13T00:22:09;0.97;;;0.90;;
32824;SDS011;51060;42.640;24.356;2022-12-13T00:24:34;1.00;;;1.00;;
32824;SDS011;51060;42.640;24.356;2022-12-13T00:27:00;2.20;;;1.10;;
32824;SDS011;51060;42.640;24.356;2022-12-13T00:29:25;1.40;;;1.30;;
32824;SDS011;51060;42.640;24.356;2022-12-13T00:31:51;1.33;;;1.23;;
32824;SDS011;51060;42.640;24.356;2022-12-13T00:34:16;2.00;;;1.60;;
32824;SDS011;51060;42.640;24.356;2022-12-13T00:36:43;1.60;;;1.50;;
32824;SDS011;51060;42.640;24.356;2022-12-13T00:39:08;1.80;;;1.50;;
32824;SDS011;51060;42.640;24.356;2022-12-13T00:41:36;2.50;;;1.47;;
32824;SDS011;51060;42.640;24.356;2022-12-13T00:44:02;1.40;;;1.30;;
32824;SDS011;51060;42.640;24.356;2022-12-13T00:46:29;1.50;;;1.40;;
32824;SDS011;51060;42.640;24.356;2022-12-13T00:48:56;1.80;;;1.40;;
32824;SDS011;51060;42.640;24.356;2022-12-13T00:51:23;1.70;;;1.50;;
32824;SDS011;51060;42.640;24.356;2022-12-13T00:53:50;1.50;;;1.40;;
32824;SDS011;51060;42.640;24.356;2022-12-13T00:56:17;2.27;;;1.63;;
32824;SDS011;51060;42.640;24.356;2022-12-13T00:58:45;1.50;;;1.30;;
32824;SDS011;51060;42.640;24.356;2022-12-13T01:01:12;1.40;;;1.30;;
32824;SDS011;51060;42.640;24.356;2022-12-13T01:03:38;1.60;;;1.30;;
32824;SDS011;51060;42.640;24.356;2022-12-13T01:06:08;2.10;;;1.80;;
32824;SDS011;51060;42.640;24.356;2022-12-13T01:08:35;5.20;;;1.47;;
32824;SDS011;51060;42.640;24.356;2022-12-13T01:11:00;1.60;;;1.50;;
32824;SDS011;51060;42.640;24.356;2022-12-13T01:13:27;1.63;;;1.40;;
32824;SDS011;51060;42.640;24.356;2022-12-13T01:15:53;2.00;;;1.80;;
32824;SDS011;51060;42.640;24.356;2022-12-13T01:18:18;2.10;;;1.70;;
32824;SDS011;51060;42.640;24.356;2022-12-13T01:23:34;2.00;;;1.80;;
32824;SDS011;51060;42.640;24.356;2022-12-13T01:26:02;2.67;;;1.87;;
32824;SDS011;51060;42.640;24.356;2022-12-13T01:28:29;2.53;;;2.23;;
32824;SDS011;51060;42.640;24.356;2022-12-13T01:31:02;1.53;;;1.40;;
32824;SDS011;51060;42.640;24.356;2022-12-13T01:33:30;2.40;;;1.83;;
32824;SDS011;51060;42.640;24.356;2022-12-13T01:35:59;1.83;;;1.60;;
32824;SDS011;51060;42.640;24.356;2022-12-13T01:38:25;2.17;;;1.50;;
32824;SDS011;51060;42.640;24.356;2022-12-13T01:40:51;1.73;;;1.63;;
32824;SDS011;51060;42.640;24.356;2022-12-13T01:43:22;1.73;;;1.53;;
32824;SDS011;51060;42.640;24.356;2022-12-13T01:45:50;2.10;;;1.90;;
32824;SDS011;51060;42.640;24.356;2022-12-13T01:48:18;1.90;;;1.70;;
32824;SDS011;51060;42.640;24.356;2022-12-13T01:50:54;1.67;;;1.57;;
32824;SDS011;51060;42.640;24.356;2022-12-13T01:53:26;2.00;;;1.80;;
32824;SDS011;51060;42.640;24.356;2022-12-13T01:55:54;2.27;;;2.07;;
32824;SDS011;51060;42.640;24.356;2022-12-13T01:58:22;2.10;;;1.83;;
32824;SDS011;51060;42.640;24.356;2022-12-13T02:00:48;2.07;;;1.70;;
32824;SDS011;51060;42.640;24.356;2022-12-13T02:03:14;2.20;;;2.00;;
32824;SDS011;51060;42.640;24.356;2022-12-13T02:05:46;2.20;;;2.00;;
32824;SDS011;51060;42.640;24.356;2022-12-13T02:08:34;2.80;;;2.60;;
32824;SDS011;51060;42.640;24.356;2022-12-13T02:11:01;2.40;;;2.00;;
32824;SDS011;51060;42.640;24.356;2022-12-13T02:13:27;2.50;;;2.27;;
32824;SDS011;51060;42.640;24.356;2022-12-13T02:21:00;2.50;;;2.27;;
32824;SDS011;51060;42.640;24.356;2022-12-13T02:26:30;4.57;;;2.87;;
32824;SDS011;51060;42.640;24.356;2022-12-13T02:32:03;4.47;;;2.67;;
32824;SDS011;51060;42.640;24.356;2022-12-13T02:34:44;4.03;;;2.77;;
32824;SDS011;51060;42.640;24.356;2022-12-13T02:37:28;2.33;;;2.13;;
32824;SDS011;51060;42.640;24.356;2022-12-13T02:40:40;2.87;;;2.50;;
32824;SDS011;51060;42.640;24.356;2022-12-13T02:42:59;3.10;;;2.50;;
32824;SDS011;51060;42.640;24.356;2022-12-13T02:45:34;2.87;;;2.50;;
32824;SDS011;51060;42.640;24.356;2022-12-13T02:48:06;3.30;;;2.13;;
32824;SDS011;51060;42.640;24.356;2022-12-13T02:50:32;3.13;;;2.53;;
32824;SDS011;51060;42.640;24.356;2022-12-13T02:52:59;6.23;;;3.10;;
32824;SDS011;51060;42.640;24.356;2022-12-13T02:55:25;2.70;;;2.37;;
32824;SDS011;51060;42.640;24.356;2022-12-13T02:57:51;4.07;;;3.07;;
32824;SDS011;51060;42.640;24.356;2022-12-13T03:00:21;3.00;;;2.70;;
32824;SDS011;51060;42.640;24.356;2022-12-13T03:05:30;3.00;;;2.50;;
32824;SDS011;51060;42.640;24.356;2022-12-13T03:08:24;2.77;;;1.90;;
32824;SDS011;51060;42.640;24.356;2022-12-13T03:11:05;3.90;;;2.70;;
32824;SDS011;51060;42.640;24.356;2022-12-13T03:13:53;3.40;;;2.70;;
32824;SDS011;51060;42.640;24.356;2022-12-13T03:16:32;3.87;;;2.50;;
32824;SDS011;51060;42.640;24.356;2022-12-13T03:19:04;3.60;;;2.47;;
32824;SDS011;51060;42.640;24.356;2022-12-13T03:21:40;3.77;;;2.33;;
32824;SDS011;51060;42.640;24.356;2022-12-13T03:24:10;3.83;;;2.30;;
32824;SDS011;51060;42.640;24.356;2022-12-13T03:26:36;3.23;;;2.40;;
32824;SDS011;51060;42.640;24.356;2022-12-13T03:29:03;2.60;;;2.10;;
32824;SDS011;51060;42.640;24.356;2022-12-13T03:31:29;3.47;;;2.63;;
32824;SDS011;51060;42.640;24.356;2022-12-13T03:33:54;4.73;;;3.00;;
32824;SDS011;51060;42.640;24.356;2022-12-13T03:36:20;2.70;;;2.50;;
32824;SDS011;51060;42.640;24.356;2022-12-13T03:38:46;3.10;;;2.50;;
32824;SDS011;51060;42.640;24.356;2022-12-13T03:41:14;3.60;;;2.37;;
32824;SDS011;51060;42.640;24.356;2022-12-13T03:43:41;4.53;;;3.00;;
32824;SDS011;51060;42.640;24.356;2022-12-13T03:46:07;3.17;;;2.67;;
32824;SDS011;51060;42.640;24.356;2022-12-13T03:48:33;4.20;;;2.63;;
32824;SDS011;51060;42.640;24.356;2022-12-13T03:50:59;3.60;;;2.90;;
32824;SDS011;51060;42.640;24.356;2022-12-13T03:53:24;3.17;;;2.80;;
32824;SDS011;51060;42.640;24.356;2022-12-13T03:55:50;5.87;;;4.23;;
32824;SDS011;51060;42.640;24.356;2022-12-13T03:58:16;3.70;;;3.00;;
32824;SDS011;51060;42.640;24.356;2022-12-13T04:00:42;6.33;;;4.23;;
32824;SDS011;51060;42.640;24.356;2022-12-13T04:03:07;5.50;;;3.40;;
32824;SDS011;51060;42.640;24.356;2022-12-13T04:05:33;7.43;;;4.83;;
32824;SDS011;51060;42.640;24.356;2022-12-13T04:07:58;7.30;;;4.20;;
32824;SDS011;51060;42.640;24.356;2022-12-13T04:10:24;8.37;;;5.60;;
32824;SDS011;51060;42.640;24.356;2022-12-13T04:12:50;3.63;;;2.97;;
32824;SDS011;51060;42.640;24.356;2022-12-13T04:15:34;3.30;;;2.63;;
32824;SDS011;51060;42.640;24.356;2022-12-13T04:18:00;4.13;;;2.63;;
32824;SDS011;51060;42.640;24.356;2022-12-13T04:20:25;3.50;;;2.97;;
32824;SDS011;51060;42.640;24.356;2022-12-13T04:22:51;4.80;;;3.40;;
32824;SDS011;51060;42.640;24.356;2022-12-13T04:25:16;3.27;;;2.63;;
32824;SDS011;51060;42.640;24.356;2022-12-13T04:27:43;5.10;;;3.17;;
32824;SDS011;51060;42.640;24.356;2022-12-13T04:30:09;3.80;;;3.40;;
32824;SDS011;51060;42.640;24.356;2022-12-13T04:32:35;4.30;;;3.13;;
32824;SDS011;51060;42.640;24.356;2022-12-13T04:35:01;3.70;;;3.23;;
32824;SDS011;51060;42.640;24.356;2022-12-13T04:37:26;2.90;;;2.43;;
32824;SDS011;51060;42.640;24.356;2022-12-13T04:39:52;7.00;;;4.43;;
32824;SDS011;51060;42.640;24.356;2022-12-13T04:42:17;3.47;;;2.90;;
32824;SDS011;51060;42.640;24.356;2022-12-13T04:44:43;5.53;;;4.00;;
32824;SDS011;51060;42.640;24.356;2022-12-13T04:47:13;6.60;;;4.17;;
32824;SDS011;51060;42.640;24.356;2022-12-13T04:49:40;5.30;;;4.07;;
32824;SDS011;51060;42.640;24.356;2022-12-13T04:52:05;5.73;;;4.30;;
32824;SDS011;51060;42.640;24.356;2022-12-13T04:54:31;7.90;;;4.80;;
32824;SDS011;51060;42.640;24.356;2022-12-13T04:56:57;6.80;;;4.17;;
32824;SDS011;51060;42.640;24.356;2022-12-13T04:59:22;3.37;;;2.70;;
32824;SDS011;51060;42.640;24.356;2022-12-13T05:01:48;5.47;;;4.20;;
32824;SDS011;51060;42.640;24.356;2022-12-13T05:04:13;5.13;;;4.10;;
32824;SDS011;51060;42.640;24.356;2022-12-13T05:06:39;5.73;;;4.47;;
32824;SDS011;51060;42.640;24.356;2022-12-13T05:09:04;3.87;;;3.47;;
32824;SDS011;51060;42.640;24.356;2022-12-13T05:11:32;3.73;;;3.30;;
32824;SDS011;51060;42.640;24.356;2022-12-13T05:13:57;4.97;;;3.70;;
32824;SDS011;51060;42.640;24.356;2022-12-13T05:16:23;5.40;;;3.87;;
32824;SDS011;51060;42.640;24.356;2022-12-13T05:18:49;6.20;;;4.20;;
32824;SDS011;51060;42.640;24.356;2022-12-13T05:21:14;3.30;;;2.90;;
32824;SDS011;51060;42.640;24.356;2022-12-13T05:23:40;5.10;;;3.40;;
32824;SDS011;51060;42.640;24.356;2022-12-13T05:26:05;5.07;;;3.87;;
32824;SDS011;51060;42.640;24.356;2022-12-13T05:28:32;3.83;;;2.90;;
32824;SDS011;51060;42.640;24.356;2022-12-13T05:30:58;6.30;;;4.23;;
32824;SDS011;51060;42.640;24.356;2022-12-13T05:33:30;7.53;;;4.60;;
32824;SDS011;51060;42.640;24.356;2022-12-13T05:35:56;3.83;;;3.10;;
32824;SDS011;51060;42.640;24.356;2022-12-13T05:38:22;3.83;;;3.30;;
32824;SDS011;51060;42.640;24.356;2022-12-13T05:40:47;6.13;;;3.90;;
32824;SDS011;51060;42.640;24.356;2022-12-13T05:43:15;4.97;;;4.40;;
32824;SDS011;51060;42.640;24.356;2022-12-13T05:45:40;5.80;;;4.20;;
32824;SDS011;51060;42.640;24.356;2022-12-13T05:48:06;7.23;;;5.37;;
32824;SDS011;51060;42.640;24.356;2022-12-13T05:50:33;4.70;;;3.57;;
32824;SDS011;51060;42.640;24.356;2022-12-13T05:52:58;5.30;;;3.67;;
32824;SDS011;51060;42.640;24.356;2022-12-13T05:55:27;5.17;;;4.10;;
32824;SDS011;51060;42.640;24.356;2022-12-13T05:57:52;3.87;;;2.93;;
32824;SDS011;51060;42.640;24.356;2022-12-13T06:00:18;4.87;;;3.13;;
32824;SDS011;51060;42.640;24.356;2022-12-13T06:02:43;5.57;;;3.37;;
32824;SDS011;51060;42.640;24.356;2022-12-13T06:05:09;3.37;;;2.70;;
32824;SDS011;51060;42.640;24.356;2022-12-13T06:07:36;4.50;;;3.50;;
32824;SDS011;51060;42.640;24.356;2022-12-13T06:10:02;6.40;;;4.90;;
32824;SDS011;51060;42.640;24.356;2022-12-13T06:12:29;5.97;;;3.93;;
32824;SDS011;51060;42.640;24.356;2022-12-13T06:14:54;3.03;;;2.73;;
32824;SDS011;51060;42.640;24.356;2022-12-13T06:17:20;2.50;;;2.13;;
32824;SDS011;51060;42.640;24.356;2022-12-13T06:19:49;2.87;;;2.57;;
32824;SDS011;51060;42.640;24.356;2022-12-13T06:22:15;3.03;;;2.40;;
32824;SDS011;51060;42.640;24.356;2022-12-13T06:24:40;3.63;;;2.50;;
32824;SDS011;51060;42.640;24.356;2022-12-13T06:27:06;5.40;;;3.30;;
32824;SDS011;51060;42.640;24.356;2022-12-13T06:29:32;2.40;;;2.10;;
32824;SDS011;51060;42.640;24.356;2022-12-13T06:31:59;3.93;;;3.27;;
32824;SDS011;51060;42.640;24.356;2022-12-13T06:34:26;3.33;;;2.60;;
32824;SDS011;51060;42.640;24.356;2022-12-13T06:36:51;3.53;;;2.30;;
32824;SDS011;51060;42.640;24.356;2022-12-13T06:39:19;2.77;;;2.57;;
32824;SDS011;51060;42.640;24.356;2022-12-13T06:41:45;4.57;;;3.20;;
32824;SDS011;51060;42.640;24.356;2022-12-13T06:44:11;6.83;;;5.90;;
32824;SDS011;51060;42.640;24.356;2022-12-13T06:46:37;5.57;;;3.20;;
32824;SDS011;51060;42.640;24.356;2022-12-13T06:49:02;10.30;;;5.97;;
32824;SDS011;51060;42.640;24.356;2022-12-13T06:51:28;8.17;;;4.67;;
32824;SDS011;51060;42.640;24.356;2022-12-13T06:53:54;9.13;;;4.57;;
32824;SDS011;51060;42.640;24.356;2022-12-13T06:56:20;9.37;;;4.33;;
32824;SDS011;51060;42.640;24.356;2022-12-13T06:58:46;7.43;;;4.40;;
32824;SDS011;51060;42.640;24.356;2022-12-13T07:01:18;8.60;;;5.87;;
32824;SDS011;51060;42.640;24.356;2022-12-13T07:03:44;9.10;;;6.47;;
32824;SDS011;51060;42.640;24.356;2022-12-13T07:06:13;12.93;;;7.43;;
32824;SDS011;51060;42.640;24.356;2022-12-13T07:08:40;11.33;;;7.80;;
32824;SDS011;51060;42.640;24.356;2022-12-13T07:11:07;11.63;;;7.97;;
32824;SDS011;51060;42.640;24.356;2022-12-13T07:13:32;14.73;;;9.47;;
32824;SDS011;51060;42.640;24.356;2022-12-13T07:15:58;10.53;;;7.70;;
32824;SDS011;51060;42.640;24.356;2022-12-13T07:18:24;11.73;;;8.47;;
32824;SDS011;51060;42.640;24.356;2022-12-13T07:20:50;11.67;;;8.77;;
32824;SDS011;51060;42.640;24.356;2022-12-13T07:23:16;10.83;;;8.17;;
32824;SDS011;51060;42.640;24.356;2022-12-13T07:25:51;12.80;;;9.37;;
32824;SDS011;51060;42.640;24.356;2022-12-13T07:28:20;10.20;;;6.93;;
32824;SDS011;51060;42.640;24.356;2022-12-13T07:30:46;6.93;;;5.60;;
32824;SDS011;51060;42.640;24.356;2022-12-13T07:33:12;7.47;;;5.77;;
32824;SDS011;51060;42.640;24.356;2022-12-13T07:35:40;8.07;;;6.40;;
32824;SDS011;51060;42.640;24.356;2022-12-13T07:38:09;14.03;;;8.70;;
32824;SDS011;51060;42.640;24.356;2022-12-13T07:40:36;12.97;;;9.10;;
32824;SDS011;51060;42.640;24.356;2022-12-13T07:43:03;7.23;;;5.80;;
32824;SDS011;51060;42.640;24.356;2022-12-13T07:45:29;8.17;;;6.00;;
32824;SDS011;51060;42.640;24.356;2022-12-13T07:47:54;5.43;;;4.07;;
32824;SDS011;51060;42.640;24.356;2022-12-13T07:50:20;7.20;;;5.03;;
32824;SDS011;51060;42.640;24.356;2022-12-13T07:52:46;10.90;;;7.63;;
32824;SDS011;51060;42.640;24.356;2022-12-13T07:55:12;11.73;;;8.03;;
32824;SDS011;51060;42.640;24.356;2022-12-13T07:57:38;13.10;;;8.90;;
32824;SDS011;51060;42.640;24.356;2022-12-13T08:00:06;9.77;;;7.37;;
32824;SDS011;51060;42.640;24.356;2022-12-13T08:02:32;9.30;;;6.73;;
32824;SDS011;51060;42.640;24.356;2022-12-13T08:04:58;8.93;;;6.03;;
32824;SDS011;51060;42.640;24.356;2022-12-13T08:07:23;10.27;;;7.80;;
32824;SDS011;51060;42.640;24.356;2022-12-13T08:09:49;8.67;;;6.20;;
32824;SDS011;51060;42.640;24.356;2022-12-13T08:12:15;3.63;;;3.00;;
32824;SDS011;51060;42.640;24.356;2022-12-13T08:14:40;6.77;;;5.17;;
32824;SDS011;51060;42.640;24.356;2022-12-13T08:17:06;6.60;;;5.50;;
32824;SDS011;51060;42.640;24.356;2022-12-13T08:19:31;6.90;;;4.17;;
32824;SDS011;51060;42.640;24.356;2022-12-13T08:21:57;5.20;;;4.10;;
32824;SDS011;51060;42.640;24.356;2022-12-13T08:24:23;8.37;;;6.17;;
32824;SDS011;51060;42.640;24.356;2022-12-13T08:26:50;10.77;;;7.83;;
32824;SDS011;51060;42.640;24.356;2022-12-13T08:29:15;11.90;;;6.77;;
32824;SDS011;51060;42.640;24.356;2022-12-13T08:31:41;7.27;;;5.33;;
32824;SDS011;51060;42.640;24.356;2022-12-13T08:34:07;6.73;;;6.03;;
32824;SDS011;51060;42.640;24.356;2022-12-13T08:36:33;5.30;;;4.80;;
32824;SDS011;51060;42.640;24.356;2022-12-13T08:38:58;5.70;;;4.83;;
32824;SDS011;51060;42.640;24.356;2022-12-13T08:41:27;9.63;;;6.90;;
32824;SDS011;51060;42.640;24.356;2022-12-13T08:43:53;8.37;;;6.03;;
32824;SDS011;51060;42.640;24.356;2022-12-13T08:46:19;7.03;;;5.80;;
32824;SDS011;51060;42.640;24.356;2022-12-13T08:48:44;8.30;;;6.40;;
32824;SDS011;51060;42.640;24.356;2022-12-13T08:51:11;11.87;;;8.10;;
32824;SDS011;51060;42.640;24.356;2022-12-13T08:53:39;10.47;;;7.40;;
32824;SDS011;51060;42.640;24.356;2022-12-13T08:56:05;9.07;;;6.60;;
32824;SDS011;51060;42.640;24.356;2022-12-13T08:58:35;9.23;;;7.83;;
32824;SDS011;51060;42.640;24.356;2022-12-13T09:01:03;12.63;;;8.73;;
32824;SDS011;51060;42.640;24.356;2022-12-13T09:03:30;10.83;;;8.80;;
32824;SDS011;51060;42.640;24.356;2022-12-13T09:05:56;8.50;;;5.80;;
32824;SDS011;51060;42.640;24.356;2022-12-13T09:08:21;7.77;;;6.30;;
32824;SDS011;51060;42.640;24.356;2022-12-13T09:10:54;6.90;;;5.40;;
32824;SDS011;51060;42.640;24.356;2022-12-13T09:13:23;8.83;;;6.20;;
32824;SDS011;51060;42.640;24.356;2022-12-13T09:15:49;7.23;;;6.50;;
32824;SDS011;51060;42.640;24.356;2022-12-13T09:18:14;7.63;;;6.27;;
32824;SDS011;51060;42.640;24.356;2022-12-13T09:20:40;9.23;;;6.43;;
32824;SDS011;51060;42.640;24.356;2022-12-13T09:23:06;5.87;;;5.00;;
32824;SDS011;51060;42.640;24.356;2022-12-13T09:25:32;5.00;;;4.30;;
32824;SDS011;51060;42.640;24.356;2022-12-13T09:27:58;9.33;;;5.87;;
32824;SDS011;51060;42.640;24.356;2022-12-13T09:30:26;7.77;;;5.90;;
32824;SDS011;51060;42.640;24.356;2022-12-13T09:32:52;7.17;;;5.80;;
32824;SDS011;51060;42.640;24.356;2022-12-13T09:35:17;6.17;;;4.80;;
32824;SDS011;51060;42.640;24.356;2022-12-13T09:37:43;4.77;;;3.90;;
32824;SDS011;51060;42.640;24.356;2022-12-13T09:40:11;6.17;;;5.00;;
32824;SDS011;51060;42.640;24.356;2022-12-13T09:42:46;5.70;;;4.90;;
32824;SDS011;51060;42.640;24.356;2022-12-13T09:45:13;5.97;;;5.27;;
32824;SDS011;51060;42.640;24.356;2022-12-13T09:47:42;7.03;;;5.53;;
32824;SDS011;51060;42.640;24.356;2022-12-13T09:52:54;7.37;;;6.30;;
32824;SDS011;51060;42.640;24.356;2022-12-13T09:55:22;9.40;;;7.27;;
32824;SDS011;51060;42.640;24.356;2022-12-13T09:57:56;7.07;;;5.40;;
32824;SDS011;51060;42.640;24.356;2022-12-13T10:00:23;8.90;;;5.90;;
32824;SDS011;51060;42.640;24.356;2022-12-13T10:02:52;7.50;;;5.57;;
32824;SDS011;51060;42.640;24.356;2022-12-13T10:05:35;7.93;;;5.50;;
32824;SDS011;51060;42.640;24.356;2022-12-13T10:08:10;6.93;;;5.40;;
32824;SDS011;51060;42.640;24.356;2022-12-13T10:10:37;7.40;;;5.73;;
32824;SDS011;51060;42.640;24.356;2022-12-13T10:15:33;11.23;;;7.50;;
32824;SDS011;51060;42.640;24.356;2022-12-13T10:18:00;6.67;;;5.03;;
32824;SDS011;51060;42.640;24.356;2022-12-13T10:20:27;5.63;;;4.67;;
32824;SDS011;51060;42.640;24.356;2022-12-13T10:22:53;5.17;;;4.20;;
32824;SDS011;51060;42.640;24.356;2022-12-13T10:25:38;6.37;;;5.20;;
32824;SDS011;51060;42.640;24.356;2022-12-13T10:28:11;5.37;;;4.43;;
32824;SDS011;51060;42.640;24.356;2022-12-13T10:30:40;6.87;;;5.33;;
32824;SDS011;51060;42.640;24.356;2022-12-13T10:33:18;8.40;;;7.10;;
32824;SDS011;51060;42.640;24.356;2022-12-13T10:35:45;9.60;;;6.87;;
32824;SDS011;51060;42.640;24.356;2022-12-13T10:38:45;5.77;;;4.87;;
32824;SDS011;51060;42.640;24.356;2022-12-13T10:41:24;10.70;;;8.10;;
32824;SDS011;51060;42.640;24.356;2022-12-13T10:46:52;9.73;;;7.40;;
32824;SDS011;51060;42.640;24.356;2022-12-13T10:49:31;9.10;;;7.03;;
32824;SDS011;51060;42.640;24.356;2022-12-13T10:52:02;8.10;;;7.27;;
32824;SDS011;51060;42.640;24.356;2022-12-13T10:54:29;5.50;;;4.80;;
32824;SDS011;51060;42.640;24.356;2022-12-13T10:56:56;6.13;;;4.67;;
32824;SDS011;51060;42.640;24.356;2022-12-13T10:59:30;6.47;;;5.67;;
32824;SDS011;51060;42.640;24.356;2022-12-13T11:01:58;8.50;;;6.40;;
32824;SDS011;51060;42.640;24.356;2022-12-13T11:04:30;5.60;;;4.90;;
32824;SDS011;51060;42.640;24.356;2022-12-13T11:07:20;6.57;;;5.27;;
32824;SDS011;51060;42.640;24.356;2022-12-13T11:10:14;7.03;;;6.20;;
32824;SDS011;51060;42.640;24.356;2022-12-13T11:12:56;7.17;;;5.50;;
32824;SDS011;51060;42.640;24.356;2022-12-13T11:15:26;9.17;;;7.00;;
32824;SDS011;51060;42.640;24.356;2022-12-13T11:17:56;7.63;;;6.00;;
32824;SDS011;51060;42.640;24.356;2022-12-13T11:20:27;7.13;;;6.00;;
32824;SDS011;51060;42.640;24.356;2022-12-13T11:23:38;6.73;;;5.60;;
32824;SDS011;51060;42.640;24.356;2022-12-13T11:25:55;6.10;;;5.03;;
32824;SDS011;51060;42.640;24.356;2022-12-13T11:28:42;14.10;;;9.07;;
32824;SDS011;51060;42.640;24.356;2022-12-13T11:34:14;7.90;;;5.70;;
32824;SDS011;51060;42.640;24.356;2022-12-13T11:36:45;9.27;;;6.10;;
32824;SDS011;51060;42.640;24.356;2022-12-13T11:45:11;8.10;;;6.53;;
32824;SDS011;51060;42.640;24.356;2022-12-13T11:50:16;9.73;;;7.03;;
32824;SDS011;51060;42.640;24.356;2022-12-13T11:52:45;6.63;;;5.50;;
32824;SDS011;51060;42.640;24.356;2022-12-13T11:57:57;6.27;;;5.00;;
32824;SDS011;51060;42.640;24.356;2022-12-13T12:03:19;4.97;;;4.47;;
32824;SDS011;51060;42.640;24.356;2022-12-13T12:06:11;4.90;;;4.30;;
32824;SDS011;51060;42.640;24.356;2022-12-13T12:08:39;6.27;;;5.13;;
32824;SDS011;51060;42.640;24.356;2022-12-13T12:13:38;10.13;;;7.77;;
32824;SDS011;51060;42.640;24.356;2022-12-13T12:18:54;8.17;;;6.60;;
32824;SDS011;51060;42.640;24.356;2022-12-13T12:26:36;12.03;;;8.70;;
32824;SDS011;51060;42.640;24.356;2022-12-13T12:29:24;9.30;;;7.60;;
32824;SDS011;51060;42.640;24.356;2022-12-13T12:32:00;9.03;;;7.57;;
32824;SDS011;51060;42.640;24.356;2022-12-13T12:37:34;14.37;;;10.17;;
32824;SDS011;51060;42.640;24.356;2022-12-13T12:45:51;10.13;;;8.13;;
32824;SDS011;51060;42.640;24.356;2022-12-13T12:56:58;9.20;;;7.37;;
32824;SDS011;51060;42.640;24.356;2022-12-13T13:02:20;15.93;;;11.37;;
32824;SDS011;51060;42.640;24.356;2022-12-13T13:04:51;19.97;;;12.93;;
32824;SDS011;51060;42.640;24.356;2022-12-13T13:07:23;12.17;;;9.70;;
32824;SDS011;51060;42.640;24.356;2022-12-13T13:09:52;32.20;;;23.87;;
32824;SDS011;51060;42.640;24.356;2022-12-13T13:12:18;12.23;;;9.27;;
32824;SDS011;51060;42.640;24.356;2022-12-13T13:14:44;8.97;;;7.10;;
32824;SDS011;51060;42.640;24.356;2022-12-13T13:22:42;3.23;;;2.90;;
32824;SDS011;51060;42.640;24.356;2022-12-13T13:28:00;9.60;;;8.63;;
32824;SDS011;51060;42.640;24.356;2022-12-13T13:30:30;16.87;;;12.43;;
32824;SDS011;51060;42.640;24.356;2022-12-13T13:32:56;19.37;;;15.63;;
32824;SDS011;51060;42.640;24.356;2022-12-13T13:40:33;7.70;;;6.47;;
32824;SDS011;51060;42.640;24.356;2022-12-13T13:57:13;6.00;;;4.60;;
32824;SDS011;51060;42.640;24.356;2022-12-13T14:06:12;1.80;;;1.70;;
32824;SDS011;51060;42.640;24.356;2022-12-13T14:19:37;14.23;;;8.13;;
32824;SDS011;51060;42.640;24.356;2022-12-13T14:30:26;8.10;;;6.23;;
32824;SDS011;51060;42.640;24.356;2022-12-13T14:32:52;13.57;;;9.10;;
32824;SDS011;51060;42.640;24.356;2022-12-13T14:35:28;11.37;;;9.20;;
32824;SDS011;51060;42.640;24.356;2022-12-13T14:37:59;22.03;;;16.37;;
32824;SDS011;51060;42.640;24.356;2022-12-13T14:40:35;27.20;;;21.80;;
32824;SDS011;51060;42.640;24.356;2022-12-13T14:43:02;45.37;;;39.07;;
32824;SDS011;51060;42.640;24.356;2022-12-13T14:45:29;44.63;;;32.63;;
32824;SDS011;51060;42.640;24.356;2022-12-13T14:47:58;61.07;;;41.57;;
32824;SDS011;51060;42.640;24.356;2022-12-13T14:50:25;55.23;;;39.77;;
32824;SDS011;51060;42.640;24.356;2022-12-13T14:52:52;30.97;;;21.77;;
32824;SDS011;51060;42.640;24.356;2022-12-13T14:55:26;29.30;;;21.17;;
32824;SDS011;51060;42.640;24.356;2022-12-13T14:58:01;17.70;;;13.47;;
32824;SDS011;51060;42.640;24.356;2022-12-13T15:00:30;17.30;;;13.37;;
32824;SDS011;51060;42.640;24.356;2022-12-13T15:02:59;33.60;;;23.53;;
32824;SDS011;51060;42.640;24.356;2022-12-13T15:05:31;37.93;;;25.87;;
32824;SDS011;51060;42.640;24.356;2022-12-13T15:07:58;19.00;;;12.70;;
32824;SDS011;51060;42.640;24.356;2022-12-13T15:10:32;11.63;;;8.23;;
32824;SDS011;51060;42.640;24.356;2022-12-13T15:13:03;7.53;;;6.13;;
32824;SDS011;51060;42.640;24.356;2022-12-13T15:15:30;6.47;;;3.87;;
32824;SDS011;51060;42.640;24.356;2022-12-13T15:20:36;28.40;;;18.77;;
32824;SDS011;51060;42.640;24.356;2022-12-13T15:23:25;40.57;;;27.33;;
32824;SDS011;51060;42.640;24.356;2022-12-13T15:26:02;21.37;;;15.30;;
32824;SDS011;51060;42.640;24.356;2022-12-13T15:28:38;11.13;;;8.40;;
32824;SDS011;51060;42.640;24.356;2022-12-13T15:31:05;7.03;;;6.17;;
32824;SDS011;51060;42.640;24.356;2022-12-13T15:33:31;7.60;;;6.33;;
32824;SDS011;51060;42.640;24.356;2022-12-13T15:36:01;12.77;;;10.60;;
32824;SDS011;51060;42.640;24.356;2022-12-13T15:38:28;32.93;;;20.80;;
32824;SDS011;51060;42.640;24.356;2022-12-13T15:40:54;21.20;;;14.13;;
32824;SDS011;51060;42.640;24.356;2022-12-13T15:43:20;29.90;;;20.57;;
32824;SDS011;51060;42.640;24.356;2022-12-13T15:45:55;17.53;;;13.27;;
32824;SDS011;51060;42.640;24.356;2022-12-13T15:48:23;13.70;;;11.10;;
32824;SDS011;51060;42.640;24.356;2022-12-13T15:53:37;23.17;;;18.50;;
32824;SDS011;51060;42.640;24.356;2022-12-13T15:58:56;30.40;;;21.07;;
32824;SDS011;51060;42.640;24.356;2022-12-13T16:01:28;43.10;;;29.87;;
32824;SDS011;51060;42.640;24.356;2022-12-13T16:03:55;64.53;;;44.93;;
32824;SDS011;51060;42.640;24.356;2022-12-13T16:06:22;81.90;;;54.97;;
32824;SDS011;51060;42.640;24.356;2022-12-13T16:08:53;53.87;;;37.80;;
32824;SDS011;51060;42.640;24.356;2022-12-13T16:11:54;32.97;;;23.53;;
32824;SDS011;51060;42.640;24.356;2022-12-13T16:17:09;40.93;;;26.80;;
32824;SDS011;51060;42.640;24.356;2022-12-13T16:19:38;17.73;;;10.00;;
32824;SDS011;51060;42.640;24.356;2022-12-13T16:22:03;14.77;;;10.93;;
32824;SDS011;51060;42.640;24.356;2022-12-13T16:24:29;72.63;;;61.73;;
32824;SDS011;51060;42.640;24.356;2022-12-13T16:26:55;41.60;;;33.70;;
32824;SDS011;51060;42.640;24.356;2022-12-13T16:29:20;39.23;;;27.93;;
32824;SDS011;51060;42.640;24.356;2022-12-13T16:31:46;30.33;;;21.53;;
32824;SDS011;51060;42.640;24.356;2022-12-13T16:34:12;30.20;;;19.83;;
32824;SDS011;51060;42.640;24.356;2022-12-13T16:36:38;18.83;;;13.53;;
32824;SDS011;51060;42.640;24.356;2022-12-13T16:39:04;20.00;;;13.27;;
32824;SDS011;51060;42.640;24.356;2022-12-13T16:41:35;17.80;;;11.37;;
32824;SDS011;51060;42.640;24.356;2022-12-13T16:44:02;18.63;;;12.83;;
32824;SDS011;51060;42.640;24.356;2022-12-13T16:46:28;15.60;;;10.23;;
32824;SDS011;51060;42.640;24.356;2022-12-13T16:48:54;18.73;;;12.37;;
32824;SDS011;51060;42.640;24.356;2022-12-13T16:51:20;15.83;;;9.93;;
32824;SDS011;51060;42.640;24.356;2022-12-13T16:53:46;27.40;;;22.33;;